Time;durP1;ratioP1;P1;durP2;ratioP2;P2;SDS_P1;SDS_P2;PMS_P1;PMS_P2;Temp;Humidity;BMP_temperature;BMP_pressure;BME280_temperature;BME280_humidity;BME280_pressure;Samples;Min_cycle;Max_cycle;Signal;HPM_P1;HPM_P2
2021/12/12 00:00:44;;;;;;;15.35;6.13;;;1.60;99.90;;;;;;5048124;28;20181;-87
2021/12/12 00:03:21;;;;;;;17.40;10.30;;;1.60;99.90;;;;;;5045360;28;20303;-85
2021/12/12 00:05:51;;;;;;;22.95;11.02;;;1.50;99.90;;;;;;5028861;28;20189;-85
2021/12/12 00:08:19;;;;;;;17.40;9.15;;;1.50;99.90;;;;;;5028191;28;21456;-85
2021/12/12 00:11:00;;;;;;;9.27;7.07;;;1.50;99.90;;;;;;5048221;28;20250;-84
2021/12/12 00:13:35;;;;;;;10.77;5.95;;;1.60;99.90;;;;;;5061586;28;20189;-85
2021/12/12 00:16:01;;;;;;;13.18;6.97;;;1.60;99.90;;;;;;5033276;28;20184;-86
2021/12/12 00:18:27;;;;;;;13.45;6.45;;;;;;;;;;5047722;28;20209;-85
2021/12/12 00:20:52;;;;;;;13.40;6.90;;;1.50;99.90;;;;;;5043805;28;20189;-84
2021/12/12 00:23:19;;;;;;;12.23;6.10;;;1.50;99.90;;;;;;5025739;28;20455;-85
2021/12/12 00:25:49;;;;;;;9.43;6.25;;;1.50;99.90;;;;;;5027654;28;20482;-84
2021/12/12 00:28:19;;;;;;;9.40;6.53;;;1.40;99.90;;;;;;5029662;28;20181;-84
2021/12/12 00:30:46;;;;;;;16.85;8.07;;;1.50;99.90;;;;;;5023846;28;20188;-84
2021/12/12 00:33:12;;;;;;;11.88;7.72;;;1.50;99.90;;;;;;5041149;28;20262;-84
2021/12/12 00:35:38;;;;;;;14.50;8.90;;;1.20;99.90;;;;;;5043057;28;20177;-85
2021/12/12 00:38:10;;;;;;;17.13;7.35;;;1.20;99.90;;;;;;5040584;28;20463;-85
2021/12/12 00:40:41;;;;;;;11.25;6.53;;;1.20;99.90;;;;;;5047994;28;20189;-85
2021/12/12 00:43:18;;;;;;;9.25;6.20;;;1.10;99.90;;;;;;5044835;28;20699;-85
2021/12/12 00:45:44;;;;;;;16.13;7.25;;;1.10;99.90;;;;;;5031323;28;20195;-84
2021/12/12 00:48:10;;;;;;;13.37;6.47;;;1.10;99.90;;;;;;5048998;28;20173;-86
2021/12/12 00:50:39;;;;;;;14.20;6.70;;;1.10;99.90;;;;;;5035151;28;20515;-87
2021/12/12 00:53:08;;;;;;;12.85;6.20;;;1.10;99.90;;;;;;5047091;28;20471;-86
2021/12/12 00:55:37;;;;;;;15.38;7.30;;;1.10;99.90;;;;;;5048940;28;20640;-85
2021/12/12 00:58:06;;;;;;;9.55;6.43;;;1.00;99.90;;;;;;5029377;28;20219;-84
2021/12/12 01:00:38;;;;;;;10.10;6.93;;;1.10;99.90;;;;;;5027243;28;20584;-84
2021/12/12 01:03:08;;;;;;;18.38;7.25;;;1.00;99.90;;;;;;5027001;28;20200;-85
2021/12/12 01:05:34;;;;;;;12.18;5.65;;;1.00;99.90;;;;;;5018932;28;20220;-83
2021/12/12 01:07:59;;;;;;;16.10;6.53;;;1.00;99.90;;;;;;5018214;28;20185;-84
2021/12/12 01:10:30;;;;;;;18.13;7.70;;;1.10;99.90;;;;;;5044964;28;20438;-84
2021/12/12 01:12:58;;;;;;;17.17;5.75;;;1.00;99.90;;;;;;5040048;28;20205;-84
2021/12/12 01:15:34;;;;;;;9.35;6.05;;;1.00;99.90;;;;;;5057636;28;20204;-85
2021/12/12 01:18:04;;;;;;;16.65;6.72;;;0.90;99.90;;;;;;5015017;28;21081;-84
2021/12/12 01:20:32;;;;;;;21.55;7.22;;;0.70;99.90;;;;;;5021095;28;20189;-84
2021/12/12 01:23:05;;;;;;;16.42;6.85;;;0.80;99.90;;;;;;5019725;28;20197;-84
2021/12/12 01:25:36;;;;;;;15.23;6.32;;;0.70;99.90;;;;;;5039637;28;20531;-85
2021/12/12 01:28:04;;;;;;;11.95;6.18;;;0.70;99.90;;;;;;5037835;28;21225;-85
2021/12/12 01:30:30;;;;;;;14.50;6.30;;;0.60;99.90;;;;;;5026915;28;20189;-85
2021/12/12 01:32:57;;;;;;;24.73;5.63;;;0.70;99.90;;;;;;5026137;28;20205;-84
2021/12/12 01:35:24;;;;;;;8.65;6.50;;;0.70;99.90;;;;;;5036984;28;20215;-85
2021/12/12 01:40:42;;;;;;;7.20;4.60;;;0.80;99.90;;;;;;5039955;28;20508;-85
2021/12/12 01:43:20;;;;;;;5.53;3.25;;;0.90;99.90;;;;;;5028568;28;20208;-85
2021/12/12 01:45:52;;;;;;;11.88;6.43;;;1.00;99.90;;;;;;5030173;28;20188;-84
2021/12/12 01:48:21;;;;;;;13.10;5.97;;;1.10;99.90;;;;;;5038270;28;20203;-85
2021/12/12 01:50:51;;;;;;;11.05;5.97;;;1.20;99.90;;;;;;5022901;28;20208;-85
2021/12/12 01:53:20;;;;;;;14.15;6.22;;;1.30;99.90;;;;;;5031331;28;20298;-84
2021/12/12 01:55:52;;;;;;;12.35;5.40;;;1.30;99.90;;;;;;5041400;28;20188;-85
2021/12/12 01:58:22;;;;;;;9.07;4.85;;;1.30;99.90;;;;;;5036914;28;20204;-84
2021/12/12 02:00:54;;;;;;;7.07;4.32;;;0.80;99.90;;;;;;5019792;28;20258;-84
2021/12/12 02:03:23;;;;;;;13.45;4.65;;;1.40;99.90;;;;;;5016159;28;20203;-85
2021/12/12 02:05:50;;;;;;;9.93;5.68;;;1.40;99.90;;;;;;5019267;28;20206;-84
2021/12/12 02:08:19;;;;;;;13.60;6.05;;;1.50;99.90;;;;;;5039815;28;20185;-85
2021/12/12 02:10:51;;;;;;;12.55;5.32;;;1.50;99.90;;;;;;5047420;28;20177;-85
2021/12/12 02:13:20;;;;;;;11.45;5.60;;;1.50;99.90;;;;;;5026841;28;20197;-85
2021/12/12 02:15:49;;;;;;;12.07;5.50;;;1.50;99.90;;;;;;5042661;28;20208;-84
2021/12/12 02:18:18;;;;;;;10.93;5.80;;;1.60;99.90;;;;;;5025495;28;20343;-85
2021/12/12 02:21:07;;;;;;;14.77;5.05;;;1.60;99.90;;;;;;5028428;28;20223;-85
2021/12/12 02:37:06;;;;;;;15.43;5.93;;;1.70;99.90;;;;;;5037621;28;20251;-86
2021/12/12 02:39:33;;;;;;;7.70;4.15;;;1.70;99.90;;;;;;5047775;28;20316;-86
2021/12/12 02:42:06;;;;;;;17.42;5.65;;;1.70;99.90;;;;;;5036986;28;20702;-85
2021/12/12 02:44:34;;;;;;;9.35;4.55;;;1.70;99.90;;;;;;5052784;28;20216;-85
2021/12/12 02:47:10;;;;;;;9.38;5.80;;;1.80;99.90;;;;;;5040523;28;20235;-85
2021/12/12 02:52:07;;;;;;;9.55;4.57;;;1.80;99.90;;;;;;5049260;28;20184;-86
2021/12/12 02:54:33;;;;;;;10.55;4.72;;;1.80;99.90;;;;;;5045787;28;20587;-86
2021/12/12 02:57:01;;;;;;;12.37;5.43;;;1.80;99.90;;;;;;5029857;28;20181;-85
2021/12/12 02:59:26;;;;;;;9.40;4.97;;;1.80;99.90;;;;;;5049073;28;20271;-86
2021/12/12 03:02:05;;;;;;;11.90;6.40;;;1.80;99.90;;;;;;5026493;28;20857;-87
2021/12/12 03:04:32;;;;;;;20.92;6.00;;;1.70;99.90;;;;;;5035250;28;20206;-86
2021/12/12 03:06:58;;;;;;;8.32;5.72;;;1.70;99.90;;;;;;5044699;28;20816;-86
2021/12/12 03:09:28;;;;;;;15.02;5.93;;;1.70;99.90;;;;;;5051208;28;20246;-85
2021/12/12 03:11:59;;;;;;;10.30;5.75;;;1.60;99.90;;;;;;5035043;28;20181;-86
2021/12/12 03:14:32;;;;;;;8.15;5.00;;;1.50;99.90;;;;;;5033899;28;20208;-85
2021/12/12 03:17:00;;;;;;;13.75;4.72;;;1.30;99.90;;;;;;5030453;28;20443;-85
2021/12/12 03:19:25;;;;;;;6.50;4.30;;;1.10;99.90;;;;;;5030455;28;20212;-85
2021/12/12 03:21:51;;;;;;;7.60;4.30;;;0.90;99.90;;;;;;5038376;28;20185;-85
2021/12/12 03:24:22;;;;;;;9.30;4.90;;;0.50;99.90;;;;;;5053329;28;20276;-86
2021/12/12 03:26:52;;;;;;;6.28;4.32;;;0.40;99.90;;;;;;5046936;28;20181;-85
2021/12/12 03:29:17;;;;;;;11.10;3.85;;;0.20;99.90;;;;;;5037725;28;20220;-85
2021/12/12 03:31:52;;;;;;;6.67;2.43;;;0.10;99.90;;;;;;5049792;28;20201;-86
2021/12/12 03:34:21;;;;;;;3.67;3.10;;;0.00;99.90;;;;;;5025429;28;20257;-84
2021/12/12 03:36:50;;;;;;;8.38;4.90;;;0.10;99.90;;;;;;5033573;28;21070;-84
2021/12/12 03:39:22;;;;;;;12.63;5.05;;;0.40;99.90;;;;;;5041235;28;20188;-85
2021/12/12 03:41:48;;;;;;;6.03;4.03;;;0.60;99.90;;;;;;5056071;28;20189;-85
2021/12/12 03:44:18;;;;;;;4.07;2.55;;;0.80;99.90;;;;;;5039376;28;20205;-85
2021/12/12 03:46:47;;;;;;;12.45;4.13;;;1.00;99.90;;;;;;5048684;28;20181;-85
2021/12/12 03:49:14;;;;;;;3.20;2.20;;;1.20;99.90;;;;;;5024005;28;20185;-85
2021/12/12 03:51:42;;;;;;;6.85;2.63;;;1.40;99.90;;;;;;5024189;28;20354;-85
2021/12/12 03:54:07;;;;;;;3.40;2.30;;;1.60;99.90;;;;;;5034896;28;20193;-85
2021/12/12 03:56:33;;;;;;;4.80;2.20;;;1.60;99.90;;;;;;5043136;28;20188;-84
2021/12/12 03:58:59;;;;;;;9.70;2.00;;;1.70;99.90;;;;;;5034734;28;20458;-85
2021/12/12 04:01:36;;;;;;;2.13;1.87;;;1.80;99.90;;;;;;5043390;28;20492;-85
2021/12/12 04:04:17;;;;;;;41.67;4.70;;;1.80;99.90;;;;;;5045834;28;20451;-83
2021/12/12 04:06:43;;;;;;;3.90;2.92;;;2.00;99.90;;;;;;5061887;28;20227;-85
2021/12/12 04:09:11;;;;;;;8.88;4.05;;;2.10;99.90;;;;;;5029137;28;20181;-85
2021/12/12 04:11:42;;;;;;;4.55;2.63;;;2.00;99.90;;;;;;5046940;23;20316;-84
2021/12/12 04:14:09;;;;;;;7.72;2.50;;;1.90;99.90;;;;;;5021958;28;20211;-84
2021/12/12 04:16:37;;;;;;;5.85;2.03;;;1.90;99.90;;;;;;5042678;28;20170;-84
2021/12/12 04:19:04;;;;;;;6.00;2.97;;;1.80;99.90;;;;;;5041417;28;20216;-85
2021/12/12 04:21:30;;;;;;;6.22;2.40;;;1.80;99.90;;;;;;5040192;28;20197;-83
2021/12/12 04:23:56;;;;;;;8.10;2.40;;;1.80;99.90;;;;;;5025512;28;20181;-85
2021/12/12 04:26:29;;;;;;;9.68;2.30;;;1.80;99.90;;;;;;5030708;28;20196;-84
2021/12/12 04:29:00;;;;;;;10.43;2.65;;;2.00;99.90;;;;;;5045666;28;20184;-84
2021/12/12 04:31:26;;;;;;;5.15;3.22;;;2.10;99.90;;;;;;5022279;28;20681;-86
2021/12/12 04:33:52;;;;;;;2.83;1.92;;;2.10;99.90;;;;;;5040407;28;20194;-86
2021/12/12 04:36:23;;;;;;;4.30;1.55;;;2.10;99.90;;;;;;5032841;28;20239;-85
2021/12/12 04:38:48;;;;;;;4.88;2.30;;;2.10;99.90;;;;;;5044029;28;20621;-84
2021/12/12 04:41:14;;;;;;;5.77;2.53;;;;;;;;;;5028133;28;20204;-85
2021/12/12 04:43:41;;;;;;;3.97;2.43;;;2.20;99.90;;;;;;5045696;28;20178;-86
2021/12/12 04:46:11;;;;;;;3.67;2.20;;;2.20;99.90;;;;;;5042430;28;20428;-86
2021/12/12 04:51:46;;;;;;;4.68;2.40;;;2.20;99.90;;;;;;5044351;28;20235;-86
2021/12/12 04:54:33;;;;;;;7.80;2.88;;;2.30;99.90;;;;;;5042678;28;20238;-85
2021/12/12 04:57:06;;;;;;;4.85;2.15;;;2.30;99.90;;;;;;5046274;28;20195;-83
2021/12/12 04:59:39;;;;;;;9.05;1.95;;;2.30;99.90;;;;;;5027353;28;20197;-85
2021/12/12 05:02:27;;;;;;;3.35;1.90;;;2.30;99.90;;;;;;5039322;28;20209;-85
2021/12/12 05:05:12;;;;;;;3.20;2.00;;;2.30;99.90;;;;;;5028645;28;20235;-84
2021/12/12 05:07:46;;;;;;;1.80;1.63;;;2.30;99.90;;;;;;5041253;28;20193;-85
2021/12/12 05:10:24;;;;;;;7.30;2.58;;;2.30;99.90;;;;;;5043848;28;20177;-86
2021/12/12 05:13:16;;;;;;;3.03;1.83;;;2.30;99.90;;;;;;5037846;28;21386;-86
2021/12/12 05:15:46;;;;;;;6.15;2.30;;;2.20;99.90;;;;;;5045292;28;20256;-85
2021/12/12 05:18:29;;;;;;;5.03;3.00;;;2.20;99.90;;;;;;5021580;28;20278;-84
2021/12/12 05:21:11;;;;;;;3.83;2.83;;;2.20;99.90;;;;;;5044609;28;20207;-85
2021/12/12 05:23:40;;;;;;;2.75;1.95;;;2.20;99.90;;;;;;5026652;28;20280;-85
2021/12/12 05:26:09;;;;;;;4.45;2.55;;;2.10;99.90;;;;;;5026486;28;20620;-84
2021/12/12 05:28:50;;;;;;;6.25;3.42;;;2.00;99.90;;;;;;5044353;28;20197;-85
2021/12/12 05:31:18;;;;;;;4.85;3.05;;;2.10;99.90;;;;;;5028675;28;20344;-84
2021/12/12 05:33:45;;;;;;;6.78;2.28;;;2.00;99.90;;;;;;5043507;28;20212;-83
2021/12/12 05:36:11;;;;;;;7.50;5.25;;;2.00;99.90;;;;;;5046033;28;20259;-85
2021/12/12 05:38:39;;;;;;;10.07;5.28;;;2.00;99.90;;;;;;5034223;28;20220;-84
2021/12/12 05:41:06;;;;;;;2.42;2.22;;;1.90;99.90;;;;;;5032920;28;20694;-83
2021/12/12 05:43:32;;;;;;;2.58;1.58;;;1.90;99.90;;;;;;5043293;28;20753;-84
2021/12/12 05:45:58;;;;;;;4.05;2.85;;;1.90;99.90;;;;;;5028255;28;20185;-84
2021/12/12 05:48:24;;;;;;;5.27;3.60;;;1.90;99.90;;;;;;5031614;28;20190;-83
2021/12/12 05:50:51;;;;;;;5.63;2.30;;;1.80;99.90;;;;;;5042198;28;20565;-86
2021/12/12 05:53:17;;;;;;;5.18;2.65;;;1.70;99.90;;;;;;5047571;28;20487;-84
2021/12/12 05:55:45;;;;;;;5.90;2.70;;;1.80;99.90;;;;;;5043490;28;20186;-83
2021/12/12 05:58:13;;;;;;;5.03;3.13;;;1.70;99.90;;;;;;5051372;28;20228;-84
2021/12/12 06:00:47;;;;;;;5.10;2.05;;;1.80;99.90;;;;;;5036320;28;20205;-83
2021/12/12 06:03:16;;;;;;;6.03;2.15;;;1.70;99.90;;;;;;5035135;28;20182;-83
2021/12/12 06:05:42;;;;;;;6.00;2.80;;;1.50;99.90;;;;;;5031780;28;20173;-84
2021/12/12 06:08:08;;;;;;;6.32;2.90;;;1.50;99.90;;;;;;5041990;28;20192;-84
2021/12/12 06:10:37;;;;;;;3.75;2.95;;;1.60;99.90;;;;;;5039772;28;20216;-84
2021/12/12 06:13:05;;;;;;;12.63;4.13;;;1.60;99.90;;;;;;5042041;28;20250;-85
2021/12/12 06:15:31;;;;;;;2.95;2.40;;;1.50;99.90;;;;;;5041406;28;20622;-83
2021/12/12 06:17:58;;;;;;;2.65;1.90;;;1.50;99.90;;;;;;5037365;28;20591;-84
2021/12/12 06:20:26;;;;;;;2.45;2.05;;;1.40;99.90;;;;;;5044135;28;20257;-84
2021/12/12 06:22:52;;;;;;;2.78;2.08;;;1.40;99.90;;;;;;5042439;28;20258;-84
2021/12/12 06:25:19;;;;;;;4.72;1.92;;;1.40;99.90;;;;;;5033198;28;20177;-84
2021/12/12 06:27:44;;;;;;;5.30;4.00;;;1.60;99.90;;;;;;5036704;28;20185;-85
2021/12/12 06:30:14;;;;;;;10.83;2.90;;;1.50;99.90;;;;;;5032069;28;20772;-84
2021/12/12 06:32:42;;;;;;;4.78;2.45;;;3.80;99.90;;;;;;5021768;28;20187;-86
2021/12/12 06:35:09;;;;;;;4.05;2.83;;;1.50;99.90;;;;;;5038320;28;20200;-85
2021/12/12 06:37:35;;;;;;;3.03;2.75;;;1.60;99.90;;;;;;5038599;28;20185;-85
2021/12/12 06:40:04;;;;;;;6.38;2.30;;;1.60;99.90;;;;;;5039166;28;20304;-85
2021/12/12 06:42:30;;;;;;;4.43;2.25;;;1.60;99.90;;;;;;5036544;28;20181;-84
2021/12/12 06:44:56;;;;;;;6.28;3.30;;;1.60;99.90;;;;;;5034479;28;20212;-83
2021/12/12 06:47:22;;;;;;;4.47;2.00;;;1.60;99.90;;;;;;5031790;28;20669;-84
2021/12/12 06:49:47;;;;;;;3.03;2.73;;;1.70;99.90;;;;;;5018134;28;20692;-85
2021/12/12 06:52:14;;;;;;;6.90;3.70;;;1.70;99.90;;;;;;5035255;28;20456;-84
2021/12/12 06:54:41;;;;;;;3.00;2.45;;;1.70;99.90;;;;;;5037726;28;20177;-85
2021/12/12 06:57:12;;;;;;;2.60;2.13;;;1.70;99.90;;;;;;5021230;28;20185;-85
2021/12/12 06:59:39;;;;;;;6.35;2.15;;;1.70;99.90;;;;;;5034478;28;20355;-85
2021/12/12 07:02:06;;;;;;;5.03;2.15;;;1.60;99.90;;;;;;5037370;28;20209;-85
2021/12/12 07:04:34;;;;;;;5.00;2.97;;;1.60;99.90;;;;;;5036051;28;20266;-85
2021/12/12 07:07:04;;;;;;;3.55;1.70;;;1.60;99.90;;;;;;5034299;28;20275;-85
2021/12/12 07:09:31;;;;;;;5.00;3.20;;;1.70;99.90;;;;;;5039822;28;20211;-86
2021/12/12 07:12:00;;;;;;;3.97;1.80;;;1.70;99.90;;;;;;5039102;28;20228;-85
2021/12/12 07:14:26;;;;;;;18.08;2.40;;;1.60;99.90;;;;;;5021534;28;21029;-85
2021/12/12 07:16:55;;;;;;;5.10;3.00;;;1.50;99.90;;;;;;5028313;28;20190;-86
2021/12/12 07:19:22;;;;;;;2.85;1.88;;;1.60;99.90;;;;;;5026192;28;20197;-86
2021/12/12 07:21:48;;;;;;;3.95;2.75;;;1.80;99.90;;;;;;5029200;28;20220;-85
2021/12/12 07:24:15;;;;;;;3.30;1.90;;;1.80;99.90;;;;;;5039101;28;20174;-85
2021/12/12 07:26:42;;;;;;;3.10;2.33;;;1.80;99.90;;;;;;5031659;28;20439;-86
2021/12/12 07:29:08;;;;;;;5.90;2.80;;;1.80;99.90;;;;;;5038728;28;20665;-86
2021/12/12 07:31:37;;;;;;;2.45;2.25;;;1.90;99.90;;;;;;5033185;28;20210;-85
2021/12/12 07:34:06;;;;;;;2.67;2.03;;;2.00;99.90;;;;;;5036172;28;20445;-85
2021/12/12 07:36:36;;;;;;;6.45;2.53;;;2.00;99.90;;;;;;5034264;28;20251;-84
2021/12/12 07:39:09;;;;;;;3.15;2.08;;;2.00;99.90;;;;;;5024427;28;20231;-85
2021/12/12 07:41:35;;;;;;;5.38;3.25;;;2.00;99.90;;;;;;5029141;28;20211;-86
2021/12/12 07:44:03;;;;;;;2.38;2.10;;;2.00;99.90;;;;;;5033048;28;20184;-85
2021/12/12 07:46:30;;;;;;;5.43;2.38;;;2.10;99.90;;;;;;5045757;28;20256;-85
2021/12/12 07:48:56;;;;;;;2.47;2.10;;;2.10;99.90;;;;;;5035882;28;20250;-85
2021/12/12 07:51:23;;;;;;;5.10;2.67;;;2.10;99.90;;;;;;5040819;28;21009;-86
2021/12/12 07:53:53;;;;;;;3.53;1.73;;;2.00;99.90;;;;;;5053306;28;20739;-85
2021/12/12 07:56:23;;;;;;;5.68;2.85;;;2.00;99.90;;;;;;5029719;28;20292;-85
2021/12/12 07:58:50;;;;;;;3.75;1.65;;;2.00;99.90;;;;;;5021502;28;20276;-86
2021/12/12 08:01:18;;;;;;;2.75;2.08;;;2.10;99.90;;;;;;5044664;28;20198;-85
2021/12/12 08:03:44;;;;;;;3.58;2.45;;;2.10;99.90;;;;;;5033854;28;20645;-86
2021/12/12 08:06:14;;;;;;;4.57;2.35;;;2.10;99.90;;;;;;5032703;28;20193;-86
2021/12/12 08:08:41;;;;;;;5.18;2.78;;;2.10;99.90;;;;;;5035123;28;20764;-86
2021/12/12 08:11:08;;;;;;;3.15;1.92;;;2.10;99.90;;;;;;5049234;28;20208;-85
2021/12/12 08:13:35;;;;;;;2.97;2.35;;;2.20;99.90;;;;;;5034272;28;20864;-85
2021/12/12 08:16:04;;;;;;;6.18;2.70;;;2.60;99.90;;;;;;5048835;28;20196;-84
2021/12/12 08:18:30;;;;;;;2.75;1.73;;;2.60;99.90;;;;;;5045329;28;20205;-84
2021/12/12 08:20:56;;;;;;;11.20;6.00;;;2.70;99.90;;;;;;5030457;28;21418;-85
2021/12/12 08:23:23;;;;;;;4.07;2.47;;;2.90;99.90;;;;;;5040143;28;20455;-86
2021/12/12 08:25:51;;;;;;;9.93;4.07;;;3.00;99.90;;;;;;5023457;28;20764;-85
2021/12/12 08:28:18;;;;;;;4.63;3.28;;;3.10;99.90;;;;;;5039652;28;20185;-85
2021/12/12 08:30:45;;;;;;;4.15;3.10;;;3.30;99.90;;;;;;5029488;28;20231;-85
2021/12/12 08:33:12;;;;;;;5.30;2.88;;;3.30;99.90;;;;;;5040842;28;20181;-84
2021/12/12 08:35:39;;;;;;;4.80;2.97;;;3.30;99.90;;;;;;5026860;28;20185;-86
2021/12/12 08:38:08;;;;;;;4.72;2.85;;;3.30;99.90;;;;;;5037990;28;20264;-87
2021/12/12 08:40:47;;;;;;;4.15;2.92;;;3.30;99.90;;;;;;5014581;28;20840;-86
2021/12/12 08:43:16;;;;;;;2.55;1.88;;;3.40;99.90;;;;;;5030404;28;20178;-85
2021/12/12 08:45:47;;;;;;;2.63;2.08;;;3.40;99.90;;;;;;5033124;28;21892;-86
2021/12/12 08:48:18;;;;;;;6.93;5.05;;;3.70;99.90;;;;;;5039840;28;20181;-86
2021/12/12 08:50:47;;;;;;;8.00;3.47;;;4.20;99.90;;;;;;5038861;28;20228;-86
2021/12/12 08:53:13;;;;;;;18.05;10.00;;;4.60;99.90;;;;;;5035241;28;20183;-85
2021/12/12 08:55:45;;;;;;;5.47;2.92;;;4.50;99.90;;;;;;5054344;28;20233;-85
2021/12/12 08:58:15;;;;;;;8.35;3.70;;;4.70;99.90;;;;;;5048802;28;20185;-85
2021/12/12 09:01:08;;;;;;;5.75;3.20;;;5.00;99.90;;;;;;5033971;28;20233;-86
2021/12/12 09:03:42;;;;;;;10.38;4.70;;;5.20;99.90;;;;;;5043012;28;20200;-86
2021/12/12 09:06:11;;;;;;;5.90;3.45;;;5.50;99.90;;;;;;5040985;28;20181;-85
2021/12/12 09:08:58;;;;;;;4.30;3.10;;;6.00;99.90;;;;;;5038407;28;20212;-86
2021/12/12 09:11:42;;;;;;;4.28;2.60;;;5.90;99.90;;;;;;5042138;28;20239;-85
2021/12/12 09:14:16;;;;;;;3.40;2.55;;;6.20;99.90;;;;;;5041041;28;20177;-85
2021/12/12 09:16:48;;;;;;;9.48;4.80;;;6.60;99.90;;;;;;5024535;28;20188;-86
2021/12/12 09:19:25;;;;;;;9.25;3.58;;;6.70;99.90;;;;;;5032165;28;20225;-85
2021/12/12 09:22:00;;;;;;;4.47;3.25;;;6.40;99.90;;;;;;5045320;28;20201;-85
2021/12/12 09:24:32;;;;;;;7.07;3.47;;;6.40;99.90;;;;;;5041676;28;20177;-84
2021/12/12 09:27:03;;;;;;;19.45;9.32;;;6.30;99.90;;;;;;5042527;28;20289;-85
2021/12/12 09:29:40;;;;;;;27.02;13.18;;;6.00;99.90;;;;;;5033453;28;20285;-84
2021/12/12 09:32:20;;;;;;;16.08;7.63;;;5.80;99.90;;;;;;5043872;28;20211;-85
2021/12/12 09:35:00;;;;;;;16.55;9.00;;;5.50;99.90;;;;;;5042589;28;20189;-85
2021/12/12 09:37:32;;;;;;;45.58;20.13;;;5.20;99.90;;;;;;5041201;28;20189;-85
2021/12/12 09:40:22;;;;;;;3.38;2.72;;;4.80;99.90;;;;;;5041792;28;20224;-86
2021/12/12 09:43:07;;;;;;;5.93;2.70;;;4.80;99.90;;;;;;5044128;28;20182;-86
2021/12/12 09:45:56;;;;;;;3.17;2.15;;;4.60;99.90;;;;;;5045098;28;20216;-86
2021/12/12 09:51:56;;;;;;;4.20;2.42;;;4.60;99.90;;;;;;5040225;28;20243;-86
2021/12/12 09:54:46;;;;;;;6.90;4.50;;;4.50;99.90;;;;;;5041043;28;20181;-85
2021/12/12 09:57:35;;;;;;;5.93;4.47;;;4.60;99.90;;;;;;5021795;28;20189;-86
2021/12/12 10:00:07;;;;;;;5.95;2.75;;;5.30;99.90;;;;;;5040610;28;20258;-86
2021/12/12 10:02:41;;;;;;;5.22;2.40;;;5.30;99.90;;;;;;5042209;28;20196;-85
2021/12/12 10:05:17;;;;;;;6.38;3.67;;;5.70;99.90;;;;;;5041134;28;20275;-85
2021/12/12 10:08:01;;;;;;;7.53;4.47;;;6.00;99.90;;;;;;5042072;28;20172;-85
2021/12/12 10:10:47;;;;;;;30.25;15.60;;;6.10;99.90;;;;;;5047726;28;20205;-86
2021/12/12 10:13:36;;;;;;;5.65;2.63;;;6.20;99.90;;;;;;5043338;23;20247;-79
2021/12/12 10:16:12;;;;;;;4.07;3.08;;;6.00;99.90;;;;;;5022238;28;20170;-79
2021/12/12 10:18:47;;;;;;;17.13;7.13;;;6.00;99.90;;;;;;5004369;28;20213;-77
2021/12/12 10:21:24;;;;;;;4.68;3.28;;;6.00;99.90;;;;;;5024712;28;20185;-78
2021/12/12 10:24:11;;;;;;;3.45;2.70;;;6.20;99.90;;;;;;5019739;28;20749;-79
2021/12/12 10:26:48;;;;;;;6.10;2.83;;;6.10;99.90;;;;;;5021965;28;20201;-76
2021/12/12 10:29:27;;;;;;;8.95;5.47;;;6.30;99.90;;;;;;5023118;28;20181;-77
2021/12/12 10:32:00;;;;;;;7.53;4.68;;;6.30;99.90;;;;;;5024588;28;20235;-78
2021/12/12 10:34:42;;;;;;;7.25;4.93;;;6.10;99.90;;;;;;5006844;28;20830;-79
2021/12/12 10:37:15;;;;;;;5.80;4.10;;;6.20;99.90;;;;;;5010771;28;20209;-78
2021/12/12 10:39:52;;;;;;;5.10;3.83;;;6.50;99.90;;;;;;5006027;28;20668;-80
2021/12/12 10:42:24;;;;;;;5.90;4.30;;;6.60;99.90;;;;;;5022550;28;20189;-78
2021/12/12 10:44:57;;;;;;;5.47;3.97;;;6.40;99.90;;;;;;5017758;28;20972;-79
2021/12/12 10:47:52;;;;;;;5.53;3.78;;;6.70;99.90;;;;;;5021272;28;20339;-78
2021/12/12 10:50:41;;;;;;;6.90;4.20;;;6.50;99.90;;;;;;5010647;28;20650;-77
2021/12/12 10:53:22;;;;;;;10.30;3.30;;;6.50;99.90;;;;;;5012159;28;20184;-78
2021/12/12 10:56:01;;;;;;;10.52;4.72;;;6.60;99.90;;;;;;5030305;28;20261;-81
2021/12/12 10:58:51;;;;;;;6.60;4.95;;;6.60;99.90;;;;;;5025098;28;20240;-80
2021/12/12 11:01:28;;;;;;;6.05;2.80;;;6.80;99.90;;;;;;5015557;28;20646;-80
2021/12/12 11:04:15;;;;;;;4.72;2.92;;;6.80;99.90;;;;;;5013892;28;20329;-83
2021/12/12 11:06:47;;;;;;;10.13;3.05;;;6.80;99.90;;;;;;5031587;28;20206;-80
2021/12/12 11:09:17;;;;;;;5.40;2.38;;;6.60;99.90;;;;;;5015191;28;20190;-79
2021/12/12 11:11:49;;;;;;;8.27;2.80;;;6.40;99.90;;;;;;5030863;28;20260;-81
2021/12/12 11:14:24;;;;;;;3.28;2.65;;;6.10;99.90;;;;;;5030704;28;20213;-80
2021/12/12 11:17:19;;;;;;;2.55;2.30;;;6.10;99.90;;;;;;5023402;28;20205;-80
2021/12/12 11:20:01;;;;;;;5.18;2.78;;;5.80;99.90;;;;;;5004607;28;20221;-80
2021/12/12 11:22:33;;;;;;;7.22;3.60;;;5.70;99.90;;;;;;5028614;28;20181;-80
2021/12/12 11:25:23;;;;;;;3.17;2.67;;;5.70;99.90;;;;;;5026455;28;20216;-80
2021/12/12 11:27:55;;;;;;;3.60;2.65;;;5.70;99.90;;;;;;5024677;28;20205;-82
2021/12/12 11:30:36;;;;;;;5.03;2.83;;;5.80;99.90;;;;;;5028774;28;20718;-81
2021/12/12 11:33:06;;;;;;;6.22;3.38;;;6.10;99.90;;;;;;5012113;28;20192;-81
2021/12/12 11:35:32;;;;;;;6.63;3.20;;;6.40;99.90;;;;;;5023993;28;20585;-82
2021/12/12 11:38:30;;;;;;;4.05;2.50;;;6.60;99.90;;;;;;5021471;28;20205;-82
2021/12/12 11:41:07;;;;;;;4.00;3.05;;;6.90;99.90;;;;;;5012078;28;20577;-80
2021/12/12 11:43:42;;;;;;;4.30;2.80;;;6.70;99.90;;;;;;5025182;28;20177;-81
2021/12/12 11:46:26;;;;;;;5.88;3.00;;;6.50;99.90;;;;;;5008255;28;20336;-79
2021/12/12 11:49:00;;;;;;;5.25;3.15;;;6.10;99.90;;;;;;5023814;28;20174;-80
2021/12/12 11:51:36;;;;;;;4.90;2.80;;;6.00;99.90;;;;;;5004867;28;20279;-82
2021/12/12 11:54:30;;;;;;;5.05;3.05;;;5.80;99.90;;;;;;5009545;28;20196;-80
2021/12/12 11:57:06;;;;;;;6.53;2.35;;;6.00;99.90;;;;;;5028180;28;20304;-82
2021/12/12 11:59:43;;;;;;;7.55;2.15;;;6.00;99.90;;;;;;5006058;28;20304;-82
2021/12/12 12:02:40;;;;;;;5.10;2.65;;;6.10;99.90;;;;;;5011119;28;20174;-80
2021/12/12 12:05:28;;;;;;;4.80;2.70;;;6.10;99.90;;;;;;5025739;28;20256;-82
2021/12/12 12:08:16;;;;;;;2.95;2.33;;;7.30;99.90;;;;;;5010433;28;20727;-81
2021/12/12 12:11:15;;;;;;;5.57;2.58;;;6.50;99.90;;;;;;5020934;28;20189;-79
2021/12/12 12:14:09;;;;;;;4.60;2.17;;;6.90;99.90;;;;;;5012553;28;20259;-80
2021/12/12 12:16:49;;;;;;;3.15;2.45;;;6.60;99.90;;;;;;5019017;28;20270;-81
2021/12/12 12:19:41;;;;;;;6.90;3.85;;;6.70;99.90;;;;;;5021558;28;23052;-81
2021/12/12 12:22:32;;;;;;;6.13;3.20;;;6.60;99.90;;;;;;5003648;28;20174;-81
2021/12/12 12:25:25;;;;;;;5.45;2.80;;;6.70;99.90;;;;;;5028003;28;20185;-79
2021/12/12 12:27:58;;;;;;;3.85;2.47;;;6.50;99.90;;;;;;5005070;28;20344;-84
2021/12/12 12:30:33;;;;;;;4.28;3.00;;;6.30;99.90;;;;;;5033030;28;20186;-81
2021/12/12 12:33:32;;;;;;;5.75;3.53;;;6.10;99.90;;;;;;5008647;28;20201;-81
2021/12/12 12:36:23;;;;;;;4.25;3.33;;;6.20;99.90;;;;;;5023582;28;20661;-82
2021/12/12 12:39:26;;;;;;;7.30;2.97;;;6.20;99.90;;;;;;5002303;28;20198;-81
2021/12/12 12:42:29;;;;;;;5.90;4.53;;;6.40;99.90;;;;;;5013914;28;20272;-81
2021/12/12 12:45:13;;;;;;;8.80;3.10;;;6.50;99.90;;;;;;5014053;28;20220;-81
2021/12/12 12:48:13;;;;;;;3.03;2.70;;;6.60;99.90;;;;;;5008895;28;20201;-81
2021/12/12 12:51:16;;;;;;;5.45;3.35;;;6.90;99.90;;;;;;5014664;28;20170;-83
2021/12/12 12:54:16;;;;;;;6.03;3.20;;;6.80;99.90;;;;;;5008090;28;20215;-80
2021/12/12 12:57:09;;;;;;;5.07;2.83;;;6.80;99.90;;;;;;5006823;28;20213;-83
2021/12/12 12:59:53;;;;;;;6.65;2.67;;;6.50;99.90;;;;;;5015707;28;20221;-83
2021/12/12 13:02:25;;;;;;;8.05;3.15;;;6.40;99.90;;;;;;5001592;28;20181;-82
2021/12/12 13:04:57;;;;;;;6.90;2.83;;;6.40;99.90;;;;;;5028914;28;20280;-84
2021/12/12 13:07:39;;;;;;;2.80;2.05;;;6.60;99.90;;;;;;5026518;28;20201;-83
2021/12/12 13:10:13;;;;;;;3.67;2.30;;;6.70;99.90;;;;;;5032422;28;20186;-82
2021/12/12 13:12:50;;;;;;;2.72;2.03;;;6.70;99.90;;;;;;5009257;28;21453;-79
2021/12/12 13:15:54;;;;;;;5.80;2.80;;;6.70;99.90;;;;;;5017503;28;20240;-82
2021/12/12 13:18:41;;;;;;;11.43;4.53;;;6.70;99.90;;;;;;4970925;28;20193;-81
2021/12/12 13:21:30;;;;;;;7.85;3.13;;;6.60;99.90;;;;;;5015532;28;20255;-81
2021/12/12 13:24:18;;;;;;;5.85;3.72;;;6.70;99.90;;;;;;5000042;28;20170;-84
2021/12/12 13:27:20;;;;;;;5.50;2.97;;;6.40;99.90;;;;;;5018788;28;20213;-81
2021/12/12 13:30:13;;;;;;;4.82;2.85;;;6.20;99.90;;;;;;5024463;28;20608;-80
2021/12/12 13:32:45;;;;;;;10.30;3.85;;;6.20;99.90;;;;;;5005183;28;20192;-79
2021/12/12 13:35:23;;;;;;;5.22;2.85;;;6.30;99.90;;;;;;5007170;28;20185;-82
2021/12/12 13:38:10;;;;;;;4.22;3.10;;;6.30;99.90;;;;;;5024940;28;20256;-83
2021/12/12 13:40:56;;;;;;;5.25;2.78;;;6.40;99.90;;;;;;5024197;28;20228;-83
2021/12/12 13:43:45;;;;;;;4.70;3.40;;;6.40;99.90;;;;;;5029007;28;20181;-80
2021/12/12 13:46:42;;;;;;;3.13;2.38;;;6.50;99.90;;;;;;5025755;28;20198;-81
2021/12/12 13:49:28;;;;;;;6.00;2.65;;;6.50;99.90;;;;;;5025340;28;20272;-82
2021/12/12 13:52:03;;;;;;;3.72;2.25;;;6.30;99.90;;;;;;5026612;28;20273;-80
2021/12/12 13:54:50;;;;;;;3.30;2.63;;;6.40;99.90;;;;;;5010410;28;20181;-82